sensor_id;sensor_type;location;lat;lon;timestamp;pressure;altitude;pressure_sealevel;temperature;humidity
52441;BME280;39611;46.062;8.950;2023-05-03T00:00:04;96792.09;;;13.42;91.46
52441;BME280;39611;46.062;8.950;2023-05-03T00:02:34;96795.28;;;13.44;90.84
52441;BME280;39611;46.062;8.950;2023-05-03T00:05:06;96790.50;;;13.41;92.71
52441;BME280;39611;46.062;8.950;2023-05-03T00:07:38;96795.28;;;13.44;91.56
52441;BME280;39611;46.062;8.950;2023-05-03T00:10:06;96796.94;;;13.35;90.38
52441;BME280;39611;46.062;8.950;2023-05-03T00:12:33;96798.03;;;13.33;90.19
52441;BME280;39611;46.062;8.950;2023-05-03T00:14:59;96801.44;;;13.39;90.23
52441;BME280;39611;46.062;8.950;2023-05-03T00:17:26;96801.66;;;13.43;91.82
52441;BME280;39611;46.062;8.950;2023-05-03T00:19:52;96802.78;;;13.37;91.55
52441;BME280;39611;46.062;8.950;2023-05-03T00:22:21;96804.13;;;13.34;91.54
52441;BME280;39611;46.062;8.950;2023-05-03T00:24:49;96793.22;;;13.36;91.56
52441;BME280;39611;46.062;8.950;2023-05-03T00:27:17;96795.66;;;13.32;92.88
52441;BME280;39611;46.062;8.950;2023-05-03T00:29:44;96798.03;;;13.33;92.72
52441;BME280;39611;46.062;8.950;2023-05-03T00:32:11;96796.00;;;13.20;91.78
52441;BME280;39611;46.062;8.950;2023-05-03T00:34:37;96790.19;;;13.18;92.10
52441;BME280;39611;46.062;8.950;2023-05-03T00:37:04;96792.28;;;13.21;92.69
52441;BME280;39611;46.062;8.950;2023-05-03T00:39:31;96794.91;;;13.26;92.99
52441;BME280;39611;46.062;8.950;2023-05-03T00:41:58;96791.97;;;13.28;91.97
52441;BME280;39611;46.062;8.950;2023-05-03T00:44:25;96793.28;;;13.25;92.04
52441;BME280;39611;46.062;8.950;2023-05-03T00:46:52;96791.72;;;13.24;92.15
52441;BME280;39611;46.062;8.950;2023-05-03T00:49:18;96793.25;;;13.30;93.15
52441;BME280;39611;46.062;8.950;2023-05-03T00:51:45;96790.59;;;13.30;94.68
52441;BME280;39611;46.062;8.950;2023-05-03T00:54:11;96792.72;;;13.33;93.74
52441;BME280;39611;46.062;8.950;2023-05-03T00:56:38;96801.13;;;13.11;92.36
52441;BME280;39611;46.062;8.950;2023-05-03T00:59:17;96795.31;;;13.09;92.72
52441;BME280;39611;46.062;8.950;2023-05-03T01:01:47;96795.56;;;13.13;92.50
52441;BME280;39611;46.062;8.950;2023-05-03T01:04:13;96795.00;;;13.16;93.05
52441;BME280;39611;46.062;8.950;2023-05-03T01:06:54;96793.63;;;13.19;93.33
52441;BME280;39611;46.062;8.950;2023-05-03T01:12:11;96787.75;;;13.22;92.42
52441;BME280;39611;46.062;8.950;2023-05-03T01:17:29;96796.13;;;13.10;93.39
52441;BME280;39611;46.062;8.950;2023-05-03T01:20:06;96794.63;;;12.99;93.64
52441;BME280;39611;46.062;8.950;2023-05-03T01:22:55;96784.47;;;13.06;92.39
52441;BME280;39611;46.062;8.950;2023-05-03T01:25:25;96797.22;;;13.04;92.89
52441;BME280;39611;46.062;8.950;2023-05-03T01:27:54;96790.56;;;13.06;93.19
52441;BME280;39611;46.062;8.950;2023-05-03T01:30:22;96790.34;;;13.03;92.94
52441;BME280;39611;46.062;8.950;2023-05-03T01:33:20;96791.44;;;12.97;93.59
52441;BME280;39611;46.062;8.950;2023-05-03T01:35:59;96787.44;;;12.99;93.43
52441;BME280;39611;46.062;8.950;2023-05-03T01:38:29;96786.44;;;12.95;92.78
52441;BME280;39611;46.062;8.950;2023-05-03T01:41:01;96790.44;;;12.93;92.91
52441;BME280;39611;46.062;8.950;2023-05-03T01:43:32;96782.22;;;12.89;92.61
52441;BME280;39611;46.062;8.950;2023-05-03T01:45:59;96788.94;;;12.81;93.09
52441;BME280;39611;46.062;8.950;2023-05-03T01:48:25;96785.78;;;12.79;92.06
52441;BME280;39611;46.062;8.950;2023-05-03T01:50:52;96789.50;;;12.78;90.85
52441;BME280;39611;46.062;8.950;2023-05-03T01:53:18;96788.53;;;12.69;90.91
52441;BME280;39611;46.062;8.950;2023-05-03T01:55:45;96789.34;;;12.64;91.53
52441;BME280;39611;46.062;8.950;2023-05-03T01:58:11;96784.69;;;12.51;91.17
52441;BME280;39611;46.062;8.950;2023-05-03T02:00:38;96791.00;;;12.55;91.03
52441;BME280;39611;46.062;8.950;2023-05-03T02:03:04;96783.81;;;12.61;90.73
52441;BME280;39611;46.062;8.950;2023-05-03T02:05:31;96794.44;;;12.61;90.64
52441;BME280;39611;46.062;8.950;2023-05-03T02:07:57;96793.91;;;12.59;90.37
52441;BME280;39611;46.062;8.950;2023-05-03T02:10:23;96801.66;;;12.50;89.77
52441;BME280;39611;46.062;8.950;2023-05-03T02:12:50;96798.75;;;12.52;88.75
52441;BME280;39611;46.062;8.950;2023-05-03T02:15:17;96801.19;;;12.43;88.71
52441;BME280;39611;46.062;8.950;2023-05-03T02:17:45;96805.47;;;12.39;88.54
52441;BME280;39611;46.062;8.950;2023-05-03T02:20:13;96802.88;;;12.29;90.09
52441;BME280;39611;46.062;8.950;2023-05-03T02:22:40;96804.19;;;12.31;90.75
52441;BME280;39611;46.062;8.950;2023-05-03T02:25:07;96798.91;;;12.26;89.74
52441;BME280;39611;46.062;8.950;2023-05-03T02:27:33;96798.91;;;12.26;89.25
52441;BME280;39611;46.062;8.950;2023-05-03T02:30:00;96802.63;;;12.25;88.60
52441;BME280;39611;46.062;8.950;2023-05-03T02:32:27;96797.34;;;12.25;88.94
52441;BME280;39611;46.062;8.950;2023-05-03T02:34:54;96798.69;;;12.22;88.28
52441;BME280;39611;46.062;8.950;2023-05-03T02:37:20;96794.72;;;12.20;88.74
52441;BME280;39611;46.062;8.950;2023-05-03T02:39:47;96798.13;;;12.26;87.48
52441;BME280;39611;46.062;8.950;2023-05-03T02:42:13;96792.28;;;12.23;87.37
52441;BME280;39611;46.062;8.950;2023-05-03T02:44:40;96798.69;;;12.22;87.42
52441;BME280;39611;46.062;8.950;2023-05-03T02:47:06;96796.31;;;12.16;88.71
52441;BME280;39611;46.062;8.950;2023-05-03T02:49:32;96801.91;;;12.14;88.60
52441;BME280;39611;46.062;8.950;2023-05-03T02:51:59;96796.28;;;12.21;88.97
52441;BME280;39611;46.062;8.950;2023-05-03T02:54:25;96801.59;;;12.21;89.38
52441;BME280;39611;46.062;8.950;2023-05-03T02:56:51;96800.06;;;12.15;89.23
52441;BME280;39611;46.062;8.950;2023-05-03T02:59:18;96804.31;;;12.11;87.90
52441;BME280;39611;46.062;8.950;2023-05-03T03:01:45;96810.69;;;12.10;87.04
52441;BME280;39611;46.062;8.950;2023-05-03T03:04:12;96806.97;;;12.06;87.31
52441;BME280;39611;46.062;8.950;2023-05-03T03:06:38;96807.25;;;12.09;86.63
52441;BME280;39611;46.062;8.950;2023-05-03T03:09:05;96809.56;;;12.16;86.82
52441;BME280;39611;46.062;8.950;2023-05-03T03:11:32;96804.81;;;12.18;88.41
52441;BME280;39611;46.062;8.950;2023-05-03T03:13:58;96806.94;;;12.16;88.91
52441;BME280;39611;46.062;8.950;2023-05-03T03:16:24;96812.78;;;12.13;88.96
52441;BME280;39611;46.062;8.950;2023-05-03T03:18:51;96813.59;;;12.08;88.32
52441;BME280;39611;46.062;8.950;2023-05-03T03:21:17;96813.34;;;12.10;88.49
52441;BME280;39611;46.062;8.950;2023-05-03T03:23:44;96815.19;;;12.09;87.94
52441;BME280;39611;46.062;8.950;2023-05-03T03:26:10;96813.41;;;11.94;89.18
52441;BME280;39611;46.062;8.950;2023-05-03T03:28:37;96813.91;;;12.01;88.89
52441;BME280;39611;46.062;8.950;2023-05-03T03:31:04;96813.06;;;12.06;88.92
52441;BME280;39611;46.062;8.950;2023-05-03T03:33:30;96823.69;;;12.01;88.91
52441;BME280;39611;46.062;8.950;2023-05-03T03:35:57;96820.81;;;11.97;88.36
52441;BME280;39611;46.062;8.950;2023-05-03T03:38:23;96817.63;;;12.00;87.58
52441;BME280;39611;46.062;8.950;2023-05-03T03:40:49;96824.50;;;12.07;88.72
52441;BME280;39611;46.062;8.950;2023-05-03T03:43:17;96828.19;;;12.06;88.40
52441;BME280;39611;46.062;8.950;2023-05-03T03:45:43;96822.66;;;12.02;88.65
52441;BME280;39611;46.062;8.950;2023-05-03T03:48:10;96822.09;;;12.05;87.95
52441;BME280;39611;46.062;8.950;2023-05-03T03:50:36;96825.84;;;12.04;87.35
52441;BME280;39611;46.062;8.950;2023-05-03T03:53:02;96823.44;;;12.02;87.78
52441;BME280;39611;46.062;8.950;2023-05-03T03:55:29;96825.91;;;11.89;87.42
52441;BME280;39611;46.062;8.950;2023-05-03T03:57:56;96833.34;;;11.87;88.09
52441;BME280;39611;46.062;8.950;2023-05-03T04:00:23;96833.84;;;11.94;88.05
52441;BME280;39611;46.062;8.950;2023-05-03T04:02:49;96842.56;;;11.94;87.77
52441;BME280;39611;46.062;8.950;2023-05-03T04:05:16;96840.47;;;11.91;87.15
52441;BME280;39611;46.062;8.950;2023-05-03T04:07:42;96846.56;;;11.81;87.19
52441;BME280;39611;46.062;8.950;2023-05-03T04:10:08;96848.44;;;11.86;86.76
52441;BME280;39611;46.062;8.950;2023-05-03T04:12:35;96848.44;;;11.81;87.30
52441;BME280;39611;46.062;8.950;2023-05-03T04:15:03;96844.22;;;11.70;87.11
52441;BME280;39611;46.062;8.950;2023-05-03T04:17:30;96849.03;;;11.68;87.07
52441;BME280;39611;46.062;8.950;2023-05-03T04:19:58;96855.34;;;11.72;87.59
52441;BME280;39611;46.062;8.950;2023-05-03T04:22:24;96853.47;;;11.72;87.33
52441;BME280;39611;46.062;8.950;2023-05-03T04:24:51;96853.25;;;11.69;87.19
52441;BME280;39611;46.062;8.950;2023-05-03T04:27:19;96852.72;;;11.67;86.71
52441;BME280;39611;46.062;8.950;2023-05-03T04:29:46;96849.81;;;11.63;86.88
52441;BME280;39611;46.062;8.950;2023-05-03T04:32:14;96852.47;;;11.63;86.50
52441;BME280;39611;46.062;8.950;2023-05-03T04:34:42;96853.56;;;11.57;86.97
52441;BME280;39611;46.062;8.950;2023-05-03T04:37:08;96849.84;;;11.53;87.34
52441;BME280;39611;46.062;8.950;2023-05-03T04:39:34;96856.97;;;11.63;87.44
52441;BME280;39611;46.062;8.950;2023-05-03T04:42:01;96859.34;;;11.69;89.25
52441;BME280;39611;46.062;8.950;2023-05-03T04:44:28;96864.94;;;11.63;89.75
52441;BME280;39611;46.062;8.950;2023-05-03T04:46:54;96855.66;;;11.60;89.22
52441;BME280;39611;46.062;8.950;2023-05-03T04:49:21;96861.22;;;11.64;89.42
52441;BME280;39611;46.062;8.950;2023-05-03T04:51:47;96860.19;;;11.59;89.61
52441;BME280;39611;46.062;8.950;2023-05-03T04:54:14;96873.94;;;11.62;89.89
52441;BME280;39611;46.062;8.950;2023-05-03T04:56:40;96864.91;;;11.68;90.13
52441;BME280;39611;46.062;8.950;2023-05-03T04:59:07;96866.50;;;11.64;90.52
52441;BME280;39611;46.062;8.950;2023-05-03T05:01:34;96870.72;;;11.65;91.14
52441;BME280;39611;46.062;8.950;2023-05-03T05:04:00;96873.91;;;11.72;90.59
52441;BME280;39611;46.062;8.950;2023-05-03T05:06:27;96867.25;;;11.74;90.79
52441;BME280;39611;46.062;8.950;2023-05-03T05:08:53;96870.69;;;11.75;90.23
52441;BME280;39611;46.062;8.950;2023-05-03T05:11:20;96868.31;;;11.84;91.22
52441;BME280;39611;46.062;8.950;2023-05-03T05:13:47;96871.75;;;11.94;91.49
52441;BME280;39611;46.062;8.950;2023-05-03T05:16:14;96875.47;;;11.93;89.72
52441;BME280;39611;46.062;8.950;2023-05-03T05:18:40;96874.59;;;12.03;89.52
52441;BME280;39611;46.062;8.950;2023-05-03T05:21:07;96875.63;;;12.12;90.32
52441;BME280;39611;46.062;8.950;2023-05-03T05:23:33;96872.97;;;12.17;91.01
52441;BME280;39611;46.062;8.950;2023-05-03T05:26:00;96881.91;;;12.27;90.53
52441;BME280;39611;46.062;8.950;2023-05-03T05:28:27;96881.09;;;12.31;90.62
52441;BME280;39611;46.062;8.950;2023-05-03T05:30:53;96881.91;;;12.32;91.95
52441;BME280;39611;46.062;8.950;2023-05-03T05:33:20;96883.78;;;12.26;92.67
52441;BME280;39611;46.062;8.950;2023-05-03T05:35:47;96893.38;;;12.22;92.55
52441;BME280;39611;46.062;8.950;2023-05-03T05:38:15;96901.31;;;12.22;92.74
52441;BME280;39611;46.062;8.950;2023-05-03T05:40:42;96909.78;;;12.24;92.81
52441;BME280;39611;46.062;8.950;2023-05-03T05:43:09;96902.31;;;12.31;93.06
52441;BME280;39611;46.062;8.950;2023-05-03T05:45:35;96908.19;;;12.28;93.33
52441;BME280;39611;46.062;8.950;2023-05-03T05:48:02;96903.41;;;12.30;92.93
52441;BME280;39611;46.062;8.950;2023-05-03T05:50:29;96906.03;;;12.35;92.21
52441;BME280;39611;46.062;8.950;2023-05-03T05:52:56;96902.75;;;12.54;91.13
52441;BME280;39611;46.062;8.950;2023-05-03T05:55:23;96905.03;;;12.65;89.75
52441;BME280;39611;46.062;8.950;2023-05-03T05:57:50;96908.53;;;12.61;90.33
52441;BME280;39611;46.062;8.950;2023-05-03T06:00:16;96901.91;;;12.63;90.57
52441;BME280;39611;46.062;8.950;2023-05-03T06:02:44;96915.00;;;12.84;89.12
52441;BME280;39611;46.062;8.950;2023-05-03T06:05:11;96904.16;;;13.49;85.26
52441;BME280;39611;46.062;8.950;2023-05-03T06:07:37;96902.31;;;14.40;80.89
52441;BME280;39611;46.062;8.950;2023-05-03T06:10:04;96904.69;;;15.18;76.30
52441;BME280;39611;46.062;8.950;2023-05-03T06:12:31;96911.34;;;16.08;70.85
52441;BME280;39611;46.062;8.950;2023-05-03T06:14:57;96913.22;;;16.72;67.92
52441;BME280;39611;46.062;8.950;2023-05-03T06:17:28;96911.06;;;17.19;65.29
52441;BME280;39611;46.062;8.950;2023-05-03T06:19:56;96901.13;;;17.33;64.51
52441;BME280;39611;46.062;8.950;2023-05-03T06:22:23;96911.22;;;17.45;63.27
52441;BME280;39611;46.062;8.950;2023-05-03T06:24:50;96909.28;;;17.59;62.98
52441;BME280;39611;46.062;8.950;2023-05-03T06:27:16;96913.75;;;17.73;61.78
52441;BME280;39611;46.062;8.950;2023-05-03T06:29:43;96904.72;;;17.91;61.91
52441;BME280;39611;46.062;8.950;2023-05-03T06:32:09;96911.22;;;18.07;60.83
52441;BME280;39611;46.062;8.950;2023-05-03T06:34:36;96915.06;;;18.24;59.56
52441;BME280;39611;46.062;8.950;2023-05-03T06:37:02;96907.03;;;18.32;60.32
52441;BME280;39611;46.062;8.950;2023-05-03T06:39:29;96912.25;;;18.29;59.60
52441;BME280;39611;46.062;8.950;2023-05-03T06:41:56;96907.47;;;18.17;60.88
52441;BME280;39611;46.062;8.950;2023-05-03T06:44:22;96904.88;;;17.95;63.06
52441;BME280;39611;46.062;8.950;2023-05-03T06:46:49;96905.22;;;17.71;63.18
52441;BME280;39611;46.062;8.950;2023-05-03T06:49:16;96909.28;;;17.59;63.49
52441;BME280;39611;46.062;8.950;2023-05-03T06:51:42;96905.41;;;17.43;64.19
52441;BME280;39611;46.062;8.950;2023-05-03T06:54:09;96901.41;;;17.32;64.58
52441;BME280;39611;46.062;8.950;2023-05-03T06:56:35;96903.38;;;17.17;64.71
52441;BME280;39611;46.062;8.950;2023-05-03T06:59:02;96907.88;;;17.08;65.70
52441;BME280;39611;46.062;8.950;2023-05-03T07:01:32;96912.72;;;17.06;66.98
52441;BME280;39611;46.062;8.950;2023-05-03T07:03:59;96910.16;;;17.01;67.48
52441;BME280;39611;46.062;8.950;2023-05-03T07:06:26;96914.34;;;16.93;67.41
52441;BME280;39611;46.062;8.950;2023-05-03T07:08:53;96910.28;;;16.96;68.34
52441;BME280;39611;46.062;8.950;2023-05-03T07:11:20;96912.47;;;16.94;68.71
52441;BME280;39611;46.062;8.950;2023-05-03T07:13:50;96909.00;;;16.93;67.34
52441;BME280;39611;46.062;8.950;2023-05-03T07:16:17;96912.00;;;16.92;68.12
52441;BME280;39611;46.062;8.950;2023-05-03T07:18:45;96907.59;;;16.96;67.59
52441;BME280;39611;46.062;8.950;2023-05-03T07:21:12;96896.13;;;16.95;67.84
52441;BME280;39611;46.062;8.950;2023-05-03T07:23:39;96901.66;;;16.99;68.25
52441;BME280;39611;46.062;8.950;2023-05-03T07:26:07;96892.56;;;17.00;67.47
52441;BME280;39611;46.062;8.950;2023-05-03T07:28:33;96901.31;;;16.92;67.53
52441;BME280;39611;46.062;8.950;2023-05-03T07:31:01;96900.81;;;16.90;68.65
52441;BME280;39611;46.062;8.950;2023-05-03T07:33:27;96898.44;;;16.88;68.95
52441;BME280;39611;46.062;8.950;2023-05-03T07:35:54;96893.13;;;16.74;68.93
52441;BME280;39611;46.062;8.950;2023-05-03T07:38:20;96891.09;;;16.57;70.33
52441;BME280;39611;46.062;8.950;2023-05-03T07:40:46;96886.84;;;16.56;71.64
52441;BME280;39611;46.062;8.950;2023-05-03T07:43:13;96886.38;;;16.41;70.88
52441;BME280;39611;46.062;8.950;2023-05-03T07:45:41;96887.97;;;16.42;71.59
52441;BME280;39611;46.062;8.950;2023-05-03T07:48:08;96889.34;;;16.53;71.36
52441;BME280;39611;46.062;8.950;2023-05-03T07:50:34;96889.41;;;16.62;71.02
52441;BME280;39611;46.062;8.950;2023-05-03T07:53:01;96887.50;;;16.62;70.84
52441;BME280;39611;46.062;8.950;2023-05-03T07:55:27;96891.78;;;16.63;71.28
52441;BME280;39611;46.062;8.950;2023-05-03T07:57:55;96880.66;;;16.70;70.90
52441;BME280;39611;46.062;8.950;2023-05-03T08:00:24;96888.06;;;16.73;70.66
52441;BME280;39611;46.062;8.950;2023-05-03T08:02:52;96888.28;;;16.76;70.56
52441;BME280;39611;46.062;8.950;2023-05-03T08:05:18;96888.69;;;16.84;69.95
52441;BME280;39611;46.062;8.950;2023-05-03T08:07:45;96885.84;;;16.89;69.14
52441;BME280;39611;46.062;8.950;2023-05-03T08:10:11;96889.63;;;16.88;69.01
52441;BME280;39611;46.062;8.950;2023-05-03T08:12:38;96888.53;;;16.89;70.14
52441;BME280;39611;46.062;8.950;2023-05-03T08:15:05;96886.31;;;16.82;68.22
52441;BME280;39611;46.062;8.950;2023-05-03T08:17:39;96886.47;;;16.86;69.03
52441;BME280;39611;46.062;8.950;2023-05-03T08:20:06;96889.47;;;16.84;67.17
52441;BME280;39611;46.062;8.950;2023-05-03T08:22:33;96887.97;;;16.78;66.44
52441;BME280;39611;46.062;8.950;2023-05-03T08:25:03;96892.25;;;16.79;66.47
52441;BME280;39611;46.062;8.950;2023-05-03T08:27:30;96887.09;;;16.83;63.59
52441;BME280;39611;46.062;8.950;2023-05-03T08:29:57;96886.50;;;16.72;62.99
52441;BME280;39611;46.062;8.950;2023-05-03T08:32:23;96885.72;;;16.71;64.76
52441;BME280;39611;46.062;8.950;2023-05-03T08:34:51;96882.06;;;16.81;66.15
52441;BME280;39611;46.062;8.950;2023-05-03T08:37:18;96882.72;;;16.87;66.05
52441;BME280;39611;46.062;8.950;2023-05-03T08:39:44;96885.84;;;16.89;67.11
52441;BME280;39611;46.062;8.950;2023-05-03T08:42:12;96880.72;;;16.92;65.67
52441;BME280;39611;46.062;8.950;2023-05-03T08:44:46;96886.22;;;16.96;63.67
52441;BME280;39611;46.062;8.950;2023-05-03T08:47:14;96884.06;;;16.98;65.36
52441;BME280;39611;46.062;8.950;2023-05-03T08:49:43;96884.19;;;16.93;65.27
52441;BME280;39611;46.062;8.950;2023-05-03T08:52:10;96885.16;;;16.97;66.77
52441;BME280;39611;46.062;8.950;2023-05-03T08:54:39;96890.78;;;16.95;64.32
52441;BME280;39611;46.062;8.950;2023-05-03T08:57:09;96880.88;;;16.96;68.16
52441;BME280;39611;46.062;8.950;2023-05-03T08:59:49;96892.97;;;16.93;65.50
52441;BME280;39611;46.062;8.950;2023-05-03T09:02:16;96882.16;;;16.98;66.88
52441;BME280;39611;46.062;8.950;2023-05-03T09:04:43;96880.41;;;16.94;67.75
52441;BME280;39611;46.062;8.950;2023-05-03T09:07:11;96884.84;;;16.98;68.10
52441;BME280;39611;46.062;8.950;2023-05-03T09:09:38;96876.91;;;17.07;68.48
52441;BME280;39611;46.062;8.950;2023-05-03T09:12:04;96882.00;;;17.17;67.16
52441;BME280;39611;46.062;8.950;2023-05-03T09:14:40;96871.47;;;17.21;66.27
52441;BME280;39611;46.062;8.950;2023-05-03T09:17:16;96869.41;;;17.18;64.75
52441;BME280;39611;46.062;8.950;2023-05-03T09:19:54;96864.41;;;17.25;62.93
52441;BME280;39611;46.062;8.950;2023-05-03T09:22:25;96870.19;;;17.18;62.56
52441;BME280;39611;46.062;8.950;2023-05-03T09:24:54;96877.59;;;17.21;63.02
52441;BME280;39611;46.062;8.950;2023-05-03T09:27:22;96873.63;;;17.41;61.03
52441;BME280;39611;46.062;8.950;2023-05-03T09:29:49;96871.88;;;17.37;59.25
52441;BME280;39611;46.062;8.950;2023-05-03T09:32:16;96874.41;;;17.42;63.00
52441;BME280;39611;46.062;8.950;2023-05-03T09:34:44;96869.06;;;17.42;59.13
52441;BME280;39611;46.062;8.950;2023-05-03T09:37:11;96862.31;;;17.44;61.27
52441;BME280;39611;46.062;8.950;2023-05-03T09:39:42;96868.31;;;17.50;62.36
52441;BME280;39611;46.062;8.950;2023-05-03T09:42:17;96862.69;;;17.60;60.83
52441;BME280;39611;46.062;8.950;2023-05-03T09:44:45;96856.09;;;17.66;63.05
52441;BME280;39611;46.062;8.950;2023-05-03T09:47:14;96857.06;;;17.71;60.90
52441;BME280;39611;46.062;8.950;2023-05-03T09:49:41;96857.06;;;17.71;62.51
52441;BME280;39611;46.062;8.950;2023-05-03T09:52:09;96852.50;;;17.71;62.19
52441;BME280;39611;46.062;8.950;2023-05-03T09:54:37;96858.63;;;17.72;60.78
52441;BME280;39611;46.062;8.950;2023-05-03T09:57:04;96858.88;;;17.84;58.68
52441;BME280;39611;46.062;8.950;2023-05-03T09:59:32;96854.97;;;17.90;55.79
52441;BME280;39611;46.062;8.950;2023-05-03T10:02:02;96850.84;;;17.84;56.61
52441;BME280;39611;46.062;8.950;2023-05-03T10:04:38;96853.47;;;17.75;56.46
52441;BME280;39611;46.062;8.950;2023-05-03T10:07:09;96853.03;;;17.82;57.80
52441;BME280;39611;46.062;8.950;2023-05-03T10:09:39;96850.38;;;17.82;59.90
52441;BME280;39611;46.062;8.950;2023-05-03T10:12:08;96853.03;;;17.82;60.82
52441;BME280;39611;46.062;8.950;2023-05-03T10:14:39;96853.22;;;17.85;59.27
52441;BME280;39611;46.062;8.950;2023-05-03T10:17:12;96849.28;;;17.83;60.44
52441;BME280;39611;46.062;8.950;2023-05-03T10:19:50;96854.00;;;17.86;60.72
52441;BME280;39611;46.062;8.950;2023-05-03T10:22:17;96851.53;;;17.98;57.21
52441;BME280;39611;46.062;8.950;2023-05-03T10:27:40;96850.28;;;18.04;59.42
52441;BME280;39611;46.062;8.950;2023-05-03T10:30:08;96838.00;;;18.03;55.82
52441;BME280;39611;46.062;8.950;2023-05-03T10:32:52;96850.91;;;18.01;59.28
52441;BME280;39611;46.062;8.950;2023-05-03T10:35:19;96834.56;;;18.11;58.27
52441;BME280;39611;46.062;8.950;2023-05-03T10:37:47;96835.03;;;18.22;57.92
52441;BME280;39611;46.062;8.950;2023-05-03T10:40:16;96838.81;;;18.39;55.08
52441;BME280;39611;46.062;8.950;2023-05-03T10:42:48;96838.03;;;18.38;56.15
52441;BME280;39611;46.062;8.950;2023-05-03T10:45:26;96838.19;;;18.33;59.94
52441;BME280;39611;46.062;8.950;2023-05-03T10:50:38;96824.81;;;18.42;57.87
52441;BME280;39611;46.062;8.950;2023-05-03T10:53:05;96824.66;;;18.47;56.22
52441;BME280;39611;46.062;8.950;2023-05-03T10:55:32;96828.91;;;18.56;57.27
52441;BME280;39611;46.062;8.950;2023-05-03T10:58:00;96823.38;;;18.62;58.18
52441;BME280;39611;46.062;8.950;2023-05-03T11:00:35;96818.50;;;18.64;58.19
52441;BME280;39611;46.062;8.950;2023-05-03T11:05:57;96806.69;;;18.65;60.82
52441;BME280;39611;46.062;8.950;2023-05-03T11:08:24;96816.16;;;18.80;59.11
52441;BME280;39611;46.062;8.950;2023-05-03T11:10:58;96807.78;;;18.72;58.37
52441;BME280;39611;46.062;8.950;2023-05-03T11:13:25;96808.25;;;18.83;56.03
52441;BME280;39611;46.062;8.950;2023-05-03T11:15:53;96809.50;;;18.86;57.86
52441;BME280;39611;46.062;8.950;2023-05-03T11:18:21;96809.50;;;18.86;58.39
52441;BME280;39611;46.062;8.950;2023-05-03T11:20:48;96809.06;;;18.84;58.88
52441;BME280;39611;46.062;8.950;2023-05-03T11:23:14;96808.09;;;18.88;57.91
52441;BME280;39611;46.062;8.950;2023-05-03T11:25:41;96814.25;;;18.89;60.17
52441;BME280;39611;46.062;8.950;2023-05-03T11:28:07;96809.22;;;18.87;59.12
52441;BME280;39611;46.062;8.950;2023-05-03T11:30:34;96803.03;;;18.95;58.76
52441;BME280;39611;46.062;8.950;2023-05-03T11:33:02;96807.16;;;19.02;53.99
52441;BME280;39611;46.062;8.950;2023-05-03T11:35:29;96800.50;;;19.08;53.29
52441;BME280;39611;46.062;8.950;2023-05-03T11:37:55;96801.16;;;19.05;57.62
52441;BME280;39611;46.062;8.950;2023-05-03T11:40:22;96803.34;;;19.03;55.96
52441;BME280;39611;46.062;8.950;2023-05-03T11:42:53;96797.84;;;18.99;57.27
52441;BME280;39611;46.062;8.950;2023-05-03T11:45:21;96799.09;;;19.02;57.20
52441;BME280;39611;46.062;8.950;2023-05-03T11:47:48;96803.00;;;19.13;54.91
52441;BME280;39611;46.062;8.950;2023-05-03T11:50:16;96800.06;;;18.97;55.17
52441;BME280;39611;46.062;8.950;2023-05-03T11:52:43;96790.59;;;18.99;57.54
52441;BME280;39611;46.062;8.950;2023-05-03T11:55:11;96809.28;;;19.17;53.76
52441;BME280;39611;46.062;8.950;2023-05-03T11:57:38;96798.38;;;19.22;50.20
52441;BME280;39611;46.062;8.950;2023-05-03T12:00:14;96793.38;;;19.20;55.71
52441;BME280;39611;46.062;8.950;2023-05-03T12:02:43;96793.19;;;19.17;54.95
52441;BME280;39611;46.062;8.950;2023-05-03T12:05:10;96795.75;;;19.13;57.21
52441;BME280;39611;46.062;8.950;2023-05-03T12:07:38;96782.66;;;19.12;57.54
52441;BME280;39611;46.062;8.950;2023-05-03T12:10:13;96778.88;;;19.13;56.31
52441;BME280;39611;46.062;8.950;2023-05-03T12:12:55;96769.25;;;19.12;54.28
52441;BME280;39611;46.062;8.950;2023-05-03T12:15:34;96778.06;;;19.21;52.49
52441;BME280;39611;46.062;8.950;2023-05-03T12:18:08;96789.09;;;19.28;56.09
52441;BME280;39611;46.062;8.950;2023-05-03T12:20:36;96784.50;;;19.29;53.94
52441;BME280;39611;46.062;8.950;2023-05-03T12:23:07;96770.63;;;19.27;54.62
52441;BME280;39611;46.062;8.950;2023-05-03T12:25:36;96776.31;;;19.25;56.51
52441;BME280;39611;46.062;8.950;2023-05-03T12:28:05;96784.38;;;19.25;55.74
52441;BME280;39611;46.062;8.950;2023-05-03T12:30:45;96768.88;;;19.22;54.36
52441;BME280;39611;46.062;8.950;2023-05-03T12:33:12;96773.28;;;19.35;53.69
52441;BME280;39611;46.062;8.950;2023-05-03T12:35:41;96776.56;;;19.41;50.34
52441;BME280;39611;46.062;8.950;2023-05-03T12:38:13;96776.22;;;19.42;48.04
52441;BME280;39611;46.062;8.950;2023-05-03T12:40:42;96777.47;;;19.45;49.02
52441;BME280;39611;46.062;8.950;2023-05-03T12:43:10;96771.69;;;19.34;51.59
52441;BME280;39611;46.062;8.950;2023-05-03T12:45:37;96767.63;;;19.28;50.87
52441;BME280;39611;46.062;8.950;2023-05-03T12:48:06;96759.06;;;19.35;51.56
52441;BME280;39611;46.062;8.950;2023-05-03T12:50:34;96760.66;;;19.27;53.38
52441;BME280;39611;46.062;8.950;2023-05-03T12:53:04;96765.84;;;19.32;54.01
52441;BME280;39611;46.062;8.950;2023-05-03T12:55:37;96763.66;;;19.34;53.68
52441;BME280;39611;46.062;8.950;2023-05-03T12:58:09;96754.75;;;19.42;52.28
52441;BME280;39611;46.062;8.950;2023-05-03T13:00:39;96756.38;;;19.35;52.70
52441;BME280;39611;46.062;8.950;2023-05-03T13:03:25;96761.13;;;19.38;50.64
52441;BME280;39611;46.062;8.950;2023-05-03T13:05:58;96750.22;;;19.43;53.76
52441;BME280;39611;46.062;8.950;2023-05-03T13:08:26;96750.53;;;19.41;53.79
52441;BME280;39611;46.062;8.950;2023-05-03T13:11:00;96752.38;;;19.50;49.66
52441;BME280;39611;46.062;8.950;2023-05-03T13:13:27;96750.34;;;19.47;52.53
52441;BME280;39611;46.062;8.950;2023-05-03T13:15:53;96749.41;;;19.42;52.79
52441;BME280;39611;46.062;8.950;2023-05-03T13:18:20;96745.47;;;19.40;51.94